Time;durP1;ratioP1;P1;durP2;ratioP2;P2;SDS_P1;SDS_P2;PMS_P1;PMS_P2;Temp;Humidity;BMP_temperature;BMP_pressure;BME280_temperature;BME280_humidity;BME280_pressure;Samples;Min_cycle;Max_cycle;Signal;HPM_P1;HPM_P2
2021/10/07 00:00:49;;;;;;;0.80;0.80;;;;;;;12.62;100.00;-21025.16;4973948;28;20533;-77
2021/10/07 00:03:16;;;;;;;0.70;0.60;;;;;;;12.65;100.00;-21025.84;4972009;28;20450;-76
2021/10/07 00:05:43;;;;;;;0.70;0.63;;;;;;;12.66;100.00;-21026.13;4955652;28;20447;-77
2021/10/07 00:08:09;;;;;;;0.77;0.77;;;;;;;12.66;100.00;-21026.13;4954457;29;20579;-77
2021/10/07 00:10:36;;;;;;;0.60;0.60;;;;;;;12.62;100.00;-21025.03;4972183;28;20459;-76
2021/10/07 00:13:05;;;;;;;0.70;0.60;;;;;;;12.60;100.00;-21024.47;4973851;28;20445;-76
2021/10/07 00:15:32;;;;;;;0.70;0.70;;;;;;;12.59;100.00;-21024.34;4974756;28;20475;-76
2021/10/07 00:17:59;;;;;;;0.70;0.70;;;;;;;12.61;100.00;-21024.75;4973184;28;20436;-77
2021/10/07 00:20:26;;;;;;;0.70;0.60;;;;;;;12.65;100.00;-21026.00;4974745;28;20460;-77
2021/10/07 00:22:53;;;;;;;1.37;1.27;;;;;;;12.67;100.00;-21026.53;4973551;28;20462;-77
2021/10/07 00:25:20;;;;;;;0.70;0.60;;;;;;;12.70;100.00;-21027.22;4973077;28;20436;-76
2021/10/07 00:27:47;;;;;;;0.70;0.60;;;;;;;12.72;100.00;-21027.94;4966871;28;20452;-75
2021/10/07 00:30:20;;;;;;;0.70;0.60;;;;;;;12.70;100.00;-21027.22;4955270;28;20571;-76
2021/10/07 00:41:10;;;;;;;0.70;0.70;;;;;;;12.77;100.00;-21029.16;4973545;28;20466;-77
2021/10/07 00:43:44;;;;;;;0.70;0.70;;;;;;;12.83;100.00;-21030.81;4971043;28;20484;-77
2021/10/07 00:46:18;;;;;;;1.00;1.00;;;;;;;12.77;100.00;-21029.31;4973695;28;20442;-77
2021/10/07 00:48:51;;;;;;;0.70;0.70;;;;;;;12.77;100.00;-21029.16;4969156;28;20471;-75
2021/10/07 00:51:23;;;;;;;0.70;0.60;;;;;;;12.81;100.00;-21030.41;4954371;29;20874;-77
2021/10/07 00:53:53;;;;;;;0.70;0.60;;;;;;;12.82;100.00;-21030.53;4969361;28;20543;-75
2021/10/07 00:56:21;;;;;;;0.70;0.70;;;;;;;12.78;100.00;-21029.44;4957383;28;20457;-76
2021/10/07 00:58:51;;;;;;;0.70;0.60;;;;;;;12.79;100.00;-21029.84;4969292;28;20433;-77
2021/10/07 01:01:25;;;;;;;0.70;0.70;;;;;;;12.82;100.00;-21030.53;4955563;28;20413;-77
2021/10/07 01:03:58;;;;;;;0.70;0.60;;;;;;;12.81;100.00;-21030.41;4972553;28;20829;-78
2021/10/07 01:06:29;;;;;;;0.70;0.60;;;;;;;12.83;100.00;-21030.81;4986716;28;20467;-76
2021/10/07 01:09:04;;;;;;;0.70;0.70;;;;;;;12.82;100.00;-21030.69;4954056;29;20483;-76
2021/10/07 01:11:36;;;;;;;0.70;0.70;;;;;;;12.81;100.00;-21030.28;4962518;28;20439;-76
2021/10/07 01:14:11;;;;;;;0.70;0.70;;;;;;;12.85;100.00;-21031.38;4974156;28;20454;-77
2021/10/07 01:17:00;;;;;;;0.70;0.63;;;;;;;12.86;100.00;-21031.50;4974540;28;20454;-76
2021/10/07 01:19:39;;;;;;;0.67;0.60;;;;;;;12.87;100.00;-21031.78;4988989;28;20837;-76
2021/10/07 01:22:19;;;;;;;0.80;0.80;;;;;;;12.88;100.00;-21032.19;4974708;28;20426;-75
2021/10/07 01:24:55;;;;;;;0.70;0.60;;;;;;;12.88;100.00;-21032.06;4974110;28;20418;-76
2021/10/07 01:27:27;;;;;;;0.70;0.60;;;;;;;12.90;100.00;-21032.75;4971537;28;20513;-77
2021/10/07 01:29:59;;;;;;;0.70;0.70;;;;;;;12.89;100.00;-21032.47;4994268;28;20523;-77
2021/10/07 01:32:34;;;;;;;0.70;0.70;;;;;;;12.90;100.00;-21032.75;4977043;28;20443;-78
2021/10/07 01:35:11;;;;;;;0.70;0.70;;;;;;;12.91;100.00;-21033.03;4960964;28;20448;-78
2021/10/07 01:37:43;;;;;;;0.70;0.60;;;;;;;12.89;100.00;-21032.34;4976645;28;20460;-78
2021/10/07 01:40:13;;;;;;;0.70;0.60;;;;;;;12.90;100.00;-21032.75;4977585;28;20453;-77
2021/10/07 01:42:44;;;;;;;0.70;0.60;;;;;;;12.91;100.00;-21033.03;4973082;28;20511;-76
2021/10/07 01:45:15;;;;;;;0.70;0.70;;;;;;;12.91;100.00;-21033.03;4973571;28;20451;-78
2021/10/07 01:47:42;;;;;;;0.70;0.60;;;;;;;12.91;100.00;-21032.88;4968585;28;20487;-77
2021/10/07 01:50:15;;;;;;;0.70;0.70;;;;;;;12.93;100.00;-21033.59;4992951;28;20563;-76
2021/10/07 01:52:43;;;;;;;0.70;0.70;;;;;;;12.92;100.00;-21033.31;4992312;28;20459;-76
2021/10/07 01:55:10;;;;;;;0.70;0.60;;;;;;;12.96;100.00;-21034.41;4977217;28;20530;-77
2021/10/07 01:57:38;;;;;;;1.10;0.90;;;;;;;12.96;100.00;-21034.28;4976259;28;20479;-77
2021/10/07 02:00:06;;;;;;;0.70;0.60;;;;;;;12.97;100.00;-21034.53;4976830;28;20441;-77
2021/10/07 02:02:37;;;;;;;0.70;0.70;;;;;;;12.96;100.00;-21034.41;4977392;28;20431;-76
2021/10/07 02:05:05;;;;;;;0.70;0.70;;;;;;;13.00;100.00;-21035.50;4976361;28;21031;-77
2021/10/07 02:07:34;;;;;;;0.70;0.63;;;;;;;12.97;100.00;-21034.69;4975613;28;20831;-77
2021/10/07 02:10:04;;;;;;;0.70;0.60;;;;;;;12.96;100.00;-21034.28;4991982;28;20504;-77
2021/10/07 02:12:31;;;;;;;0.70;0.70;;;;;;;12.99;100.00;-21035.22;4975897;28;20948;-77
2021/10/07 02:15:01;;;;;;;0.70;0.70;;;;;;;12.98;100.00;-21034.81;4976838;28;20435;-77
2021/10/07 02:17:27;;;;;;;0.70;0.60;;;;;;;12.95;100.00;-21034.13;4976870;28;20550;-77
2021/10/07 02:19:54;;;;;;;1.40;1.30;;;;;;;12.87;100.00;-21031.94;4975983;28;20415;-77
2021/10/07 02:22:22;;;;;;;0.70;0.70;;;;;;;12.88;100.00;-21032.06;4977084;28;20467;-77
2021/10/07 02:24:51;;;;;;;0.70;0.70;;;;;;;12.91;100.00;-21033.03;4977057;28;20447;-77
2021/10/07 02:27:18;;;;;;;0.80;0.80;;;;;;;12.93;100.00;-21033.44;4978692;28;20450;-77
2021/10/07 02:29:45;;;;;;;0.70;0.60;;;;;;;12.92;100.00;-21033.31;4977066;28;20561;-77
2021/10/07 02:32:14;;;;;;;0.70;0.60;;;;;;;12.91;100.00;-21033.03;4976901;28;20457;-76
2021/10/07 02:34:41;;;;;;;0.70;0.60;;;;;;;12.88;100.00;-21032.06;4976961;28;20808;-76
2021/10/07 02:37:10;;;;;;;0.70;0.60;;;;;;;12.82;100.00;-21030.53;4975857;28;20876;-77
2021/10/07 02:39:37;;;;;;;0.70;0.67;;;;;;;12.80;100.00;-21030.00;4976517;28;20444;-77
2021/10/07 02:42:06;;;;;;;0.70;0.60;;;;;;;12.78;100.00;-21029.44;4976507;28;20827;-76
2021/10/07 02:44:33;;;;;;;0.70;0.60;;;;;;;12.72;100.00;-21027.94;4977983;28;20436;-77
2021/10/07 02:47:00;;;;;;;0.70;0.60;;;;;;;12.64;100.00;-21025.72;4975252;28;20497;-77
2021/10/07 02:49:28;;;;;;;0.70;0.70;;;;;;;12.51;100.00;-21022.25;4976948;28;21002;-77
2021/10/07 02:51:57;;;;;;;0.70;0.60;;;;;;;12.50;100.00;-21021.84;4977092;28;20482;-77
2021/10/07 02:54:26;;;;;;;0.70;0.60;;;;;;;12.43;100.00;-21020.06;4977860;28;20462;-77
2021/10/07 02:56:54;;;;;;;0.70;0.60;;;;;;;12.44;100.00;-21020.34;4977001;28;20426;-76
2021/10/07 02:59:22;;;;;;;0.70;0.70;;;;;;;12.45;100.00;-21020.63;4974582;28;20455;-77
2021/10/07 03:01:50;;;;;;;0.73;0.70;;;;;;;12.40;100.00;-21019.22;4974802;28;20481;-77
2021/10/07 03:04:17;;;;;;;0.70;0.70;;;;;;;12.30;100.00;-21016.47;4977151;28;20464;-78
2021/10/07 03:06:44;;;;;;;0.70;0.60;;;;;;;12.16;100.00;-21012.59;4974940;28;20440;-75
2021/10/07 03:09:11;;;;;;;0.70;0.60;;;;;;;12.07;100.00;-21010.41;4975649;28;20454;-75
2021/10/07 03:11:39;;;;;;;0.70;0.60;;;;;;;12.11;100.00;-21011.22;4974890;28;20428;-78
2021/10/07 03:14:06;;;;;;;0.70;0.60;;;;;;;12.17;100.00;-21013.03;4974822;28;20810;-75
2021/10/07 03:16:36;;;;;;;0.70;0.60;;;;;;;12.30;100.00;-21016.47;4974487;28;20452;-76
2021/10/07 03:19:03;;;;;;;0.70;0.60;;;;;;;12.30;100.00;-21016.47;4976178;28;20529;-75
2021/10/07 03:21:30;;;;;;;0.70;0.60;;;;;;;12.23;100.00;-21014.53;4976116;28;20445;-75
2021/10/07 03:23:57;;;;;;;2.40;1.07;;;;;;;12.18;100.00;-21013.16;4974728;28;20504;-76
2021/10/07 03:26:25;;;;;;;0.70;0.70;;;;;;;12.13;100.00;-21011.91;4974351;28;20963;-76
2021/10/07 03:28:52;;;;;;;0.83;0.83;;;;;;;12.11;100.00;-21011.22;4975757;28;20433;-75
2021/10/07 03:31:20;;;;;;;0.70;0.70;;;;;;;12.09;100.00;-21010.94;4973190;28;20470;-76
2021/10/07 03:33:48;;;;;;;0.70;0.70;;;;;;;12.18;100.00;-21013.16;4975554;28;20427;-76
2021/10/07 03:36:15;;;;;;;0.70;0.70;;;;;;;12.26;100.00;-21015.38;4974273;28;20430;-75
2021/10/07 03:38:42;;;;;;;0.70;0.60;;;;;;;12.28;100.00;-21015.91;4974247;28;20467;-76
2021/10/07 03:41:09;;;;;;;0.70;0.60;;;;;;;12.38;100.00;-21018.69;4957827;28;20436;-75
2021/10/07 03:43:36;;;;;;;0.70;0.60;;;;;;;12.41;100.00;-21019.50;4975368;28;20793;-75
2021/10/07 03:46:04;;;;;;;0.73;0.70;;;;;;;12.50;100.00;-21022.00;4989143;28;20754;-75
2021/10/07 03:48:31;;;;;;;0.70;0.70;;;;;;;12.49;100.00;-21021.72;4981488;28;20490;-77
2021/10/07 03:51:00;;;;;;;0.70;0.70;;;;;;;12.40;100.00;-21019.22;4965110;28;20874;-75
2021/10/07 03:53:28;;;;;;;0.70;0.70;;;;;;;12.29;100.00;-21016.19;4974439;28;20793;-76
2021/10/07 03:55:56;;;;;;;0.70;0.70;;;;;;;12.28;100.00;-21016.06;4980028;28;20455;-76
2021/10/07 03:58:23;;;;;;;0.70;0.60;;;;;;;12.36;100.00;-21018.13;4955571;28;20418;-75
2021/10/07 04:00:49;;;;;;;0.80;0.80;;;;;;;12.43;100.00;-21020.06;4968612;28;20447;-75
2021/10/07 04:03:17;;;;;;;0.73;0.73;;;;;;;12.50;100.00;-21021.84;4973310;28;20442;-76
2021/10/07 04:05:45;;;;;;;0.70;0.60;;;;;;;12.52;100.00;-21022.41;4972496;28;20515;-77
2021/10/07 04:08:13;;;;;;;0.70;0.67;;;;;;;12.52;100.00;-21022.53;4973135;28;21003;-75
2021/10/07 04:10:49;;;;;;;0.70;0.60;;;;;;;12.52;100.00;-21022.53;4971848;28;20952;-75
2021/10/07 04:13:17;;;;;;;0.70;0.60;;;;;;;12.49;100.00;-21021.72;4973094;28;20450;-75
2021/10/07 04:15:46;;;;;;;0.70;0.70;;;;;;;12.47;100.00;-21021.03;4972921;28;20434;-77
2021/10/07 04:18:16;;;;;;;0.70;0.60;;;;;;;12.46;100.00;-21020.88;4971799;28;20445;-76
2021/10/07 04:20:45;;;;;;;0.70;0.70;;;;;;;12.47;100.00;-21021.16;4972179;28;20432;-76
2021/10/07 04:23:15;;;;;;;0.70;0.60;;;;;;;12.44;100.00;-21020.34;4972308;28;20471;-75
2021/10/07 04:25:42;;;;;;;0.90;0.90;;;;;;;12.39;100.00;-21018.97;4974433;28;20435;-77
2021/10/07 04:28:09;;;;;;;0.80;0.80;;;;;;;12.33;100.00;-21017.44;4974263;28;20466;-77
2021/10/07 04:30:38;;;;;;;0.60;0.60;;;;;;;12.28;100.00;-21016.06;4974403;28;20508;-77
2021/10/07 04:33:07;;;;;;;0.70;0.70;;;;;;;12.26;100.00;-21015.38;4972891;28;20451;-77
2021/10/07 04:35:35;;;;;;;0.70;0.60;;;;;;;12.20;100.00;-21013.72;4974493;28;20464;-77
2021/10/07 04:38:01;;;;;;;0.70;0.70;;;;;;;12.19;100.00;-21013.44;4974517;28;20534;-77
2021/10/07 04:40:31;;;;;;;0.70;0.60;;;;;;;12.17;100.00;-21013.03;4974526;28;20930;-77
2021/10/07 04:42:58;;;;;;;0.80;0.80;;;;;;;12.19;100.00;-21013.44;4989058;28;20486;-75
2021/10/07 04:45:26;;;;;;;0.70;0.60;;;;;;;12.14;100.00;-21012.06;4972784;28;20539;-76
2021/10/07 04:47:54;;;;;;;0.70;0.60;;;;;;;12.00;100.00;-21008.47;4972044;28;20489;-75
2021/10/07 04:50:22;;;;;;;0.70;0.60;;;;;;;11.93;100.00;-21006.53;4954176;28;20476;-76
2021/10/07 04:52:48;;;;;;;0.70;0.70;;;;;;;11.88;100.00;-21005.00;4971838;28;20547;-75
2021/10/07 04:55:15;;;;;;;0.70;0.60;;;;;;;11.84;100.00;-21004.03;4972791;28;20444;-77
2021/10/07 04:57:43;;;;;;;0.70;0.70;;;;;;;11.82;100.00;-21003.50;4972973;28;20462;-75
2021/10/07 05:00:11;;;;;;;0.70;0.70;;;;;;;11.84;100.00;-21004.19;4972595;28;20468;-75
2021/10/07 05:02:39;;;;;;;0.70;0.60;;;;;;;11.92;100.00;-21006.25;4972954;28;20438;-75
2021/10/07 05:05:09;;;;;;;0.70;0.60;;;;;;;11.99;100.00;-21008.06;4961012;28;20464;-75
2021/10/07 05:07:39;;;;;;;0.70;0.70;;;;;;;11.97;100.00;-21007.50;4978026;28;20454;-75
2021/10/07 05:10:09;;;;;;;0.63;0.60;;;;;;;11.92;100.00;-21006.25;4977978;28;20462;-76
2021/10/07 05:12:38;;;;;;;0.63;0.57;;;;;;;11.94;100.00;-21006.66;4977998;28;20459;-76
2021/10/07 05:15:08;;;;;;;0.70;0.70;;;;;;;11.90;100.00;-21005.69;4978093;28;20762;-75
2021/10/07 05:17:36;;;;;;;0.70;0.70;;;;;;;11.90;100.00;-21005.69;4976440;28;20502;-77
2021/10/07 05:20:04;;;;;;;0.70;0.60;;;;;;;11.84;100.00;-21004.19;4977131;28;20455;-75
2021/10/07 05:22:32;;;;;;;0.70;0.70;;;;;;;11.76;100.00;-21001.84;4976539;28;20848;-75
2021/10/07 05:24:59;;;;;;;0.70;0.60;;;;;;;11.69;100.00;-20999.91;4976488;28;20427;-75
2021/10/07 05:27:26;;;;;;;0.70;0.60;;;;;;;11.49;100.00;-20994.66;4976617;28;20435;-75
2021/10/07 05:29:52;;;;;;;0.70;0.67;;;;;;;11.35;100.00;-20990.91;4976528;28;20505;-76
2021/10/07 05:32:22;;;;;;;0.70;0.60;;;;;;;11.35;100.00;-20990.78;4977517;28;20964;-78
2021/10/07 05:34:49;;;;;;;0.70;0.60;;;;;;;11.32;100.00;-20990.09;4980318;28;20444;-78
2021/10/07 05:37:18;;;;;;;0.70;0.70;;;;;;;11.26;100.00;-20988.28;4979223;28;21028;-75
2021/10/07 05:39:45;;;;;;;0.80;0.80;;;;;;;11.18;100.00;-20986.22;4979421;28;20457;-75
2021/10/07 05:42:12;;;;;;;0.70;0.60;;;;;;;11.08;100.00;-20983.59;4979053;28;20412;-74
2021/10/07 05:44:42;;;;;;;0.70;0.60;;;;;;;10.98;100.00;-20980.81;4980257;28;20474;-77
2021/10/07 05:47:10;;;;;;;0.70;0.60;;;;;;;10.81;100.00;-20976.13;4979714;28;20803;-77
2021/10/07 05:49:38;;;;;;;0.70;0.60;;;;;;;10.76;100.00;-20974.75;4979329;28;20452;-77
2021/10/07 05:52:05;;;;;;;0.70;0.60;;;;;;;10.78;100.00;-20975.28;4979818;28;20466;-76
2021/10/07 05:54:32;;;;;;;0.70;0.60;;;;;;;10.71;100.00;-20973.50;4976401;28;20523;-77
2021/10/07 05:56:59;;;;;;;0.70;0.60;;;;;;;10.65;100.00;-20971.84;4973242;28;20464;-76
2021/10/07 05:59:26;;;;;;;0.80;0.80;;;;;;;10.57;100.00;-20969.75;4958537;28;20528;-76
2021/10/07 06:01:54;;;;;;;0.70;0.60;;;;;;;10.49;100.00;-20967.53;4957216;29;20422;-77
2021/10/07 06:04:21;;;;;;;0.70;0.60;;;;;;;10.45;100.00;-20966.44;4957451;29;20483;-76
2021/10/07 06:06:50;;;;;;;1.70;1.60;;;;;;;10.39;100.00;-20964.91;4956572;28;20443;-76
2021/10/07 06:09:16;;;;;;;0.70;0.60;;;;;;;10.35;100.00;-20963.81;4957214;29;20476;-77
2021/10/07 06:11:44;;;;;;;0.70;0.60;;;;;;;10.42;100.00;-20965.47;4957477;28;20542;-75
2021/10/07 06:14:11;;;;;;;0.70;0.60;;;;;;;10.50;100.00;-20967.69;4956811;28;20922;-75
2021/10/07 06:16:39;;;;;;;0.70;0.60;;;;;;;10.58;100.00;-20970.03;4962064;28;20464;-76
2021/10/07 06:19:11;;;;;;;0.70;0.60;;;;;;;10.71;100.00;-20973.34;4958003;28;20450;-75
2021/10/07 06:21:38;;;;;;;0.70;0.60;;;;;;;10.72;100.00;-20973.63;4967580;28;20830;-75
2021/10/07 06:24:06;;;;;;;1.00;1.00;;;;;;;10.71;100.00;-20973.50;4991542;28;20518;-75
2021/10/07 06:26:37;;;;;;;0.70;0.60;;;;;;;10.79;100.00;-20975.72;4990675;28;20423;-75
2021/10/07 06:29:04;;;;;;;0.83;0.83;;;;;;;10.92;100.00;-20979.03;4975303;28;20546;-76
2021/10/07 06:31:31;;;;;;;0.70;0.70;;;;;;;11.07;100.00;-20983.31;4974811;28;20501;-77
2021/10/07 06:33:58;;;;;;;0.70;0.60;;;;;;;11.18;100.00;-20986.06;4976332;28;20914;-75
2021/10/07 06:36:25;;;;;;;1.57;1.47;;;;;;;11.29;100.00;-20989.13;4975302;28;20458;-75
2021/10/07 06:38:54;;;;;;;0.70;0.60;;;;;;;11.30;100.00;-20989.41;4974997;28;20457;-75
2021/10/07 06:41:23;;;;;;;0.70;0.70;;;;;;;11.34;100.00;-20990.50;4976484;28;20530;-75
2021/10/07 06:43:50;;;;;;;0.70;0.60;;;;;;;11.38;100.00;-20991.59;4991003;28;20819;-75
2021/10/07 06:46:17;;;;;;;0.70;0.70;;;;;;;11.50;100.00;-20994.78;4973671;28;20879;-77
2021/10/07 06:48:45;;;;;;;1.30;1.20;;;;;;;11.67;100.00;-20999.34;4970947;28;20443;-75
2021/10/07 06:51:14;;;;;;;0.70;0.60;;;;;;;11.81;100.00;-21003.34;4976399;28;20505;-74
2021/10/07 06:53:41;;;;;;;0.70;0.60;;;;;;;11.95;100.00;-21007.09;4975704;28;20456;-75
2021/10/07 06:56:09;;;;;;;0.70;0.70;;;;;;;12.07;100.00;-21010.41;4974561;28;20456;-75
2021/10/07 06:58:37;;;;;;;0.70;0.60;;;;;;;12.17;100.00;-21012.88;4974918;28;20455;-73
2021/10/07 07:01:05;;;;;;;1.40;1.30;;;;;;;12.31;100.00;-21016.88;4974553;28;20439;-74
2021/10/07 07:03:32;;;;;;;0.70;0.60;;;;;;;12.38;100.00;-21018.69;4975760;28;20425;-74
2021/10/07 07:06:00;;;;;;;0.70;0.70;;;;;;;12.49;100.00;-21021.59;4974708;28;20493;-76
2021/10/07 07:08:27;;;;;;;0.70;0.60;;;;;;;12.47;100.00;-21021.03;4976324;28;20455;-76
2021/10/07 07:10:54;;;;;;;0.70;0.60;;;;;;;12.43;100.00;-21020.06;4975920;28;20459;-77
2021/10/07 07:13:23;;;;;;;0.70;0.60;;;;;;;12.47;100.00;-21021.16;4975388;28;20427;-77
2021/10/07 07:15:51;;;;;;;0.60;0.60;;;;;;;12.41;100.00;-21019.38;4958723;28;20489;-77
2021/10/07 07:18:18;;;;;;;0.70;0.70;;;;;;;12.43;100.00;-21020.06;4989807;28;20536;-78
2021/10/07 07:20:45;;;;;;;0.70;0.70;;;;;;;12.43;100.00;-21019.91;4974525;28;20430;-77
2021/10/07 07:23:12;;;;;;;0.73;0.70;;;;;;;12.43;100.00;-21019.91;4974529;28;20461;-76
2021/10/07 07:25:42;;;;;;;0.70;0.67;;;;;;;12.49;100.00;-21021.72;4974094;28;20442;-76
2021/10/07 07:28:11;;;;;;;0.80;0.80;;;;;;;12.62;100.00;-21025.16;4974453;28;20431;-77
2021/10/07 07:30:38;;;;;;;0.60;0.60;;;;;;;12.75;100.00;-21028.63;4974229;28;20457;-78
2021/10/07 07:33:07;;;;;;;0.70;0.70;;;;;;;12.75;100.00;-21028.63;4975204;28;20439;-77
2021/10/07 07:35:37;;;;;;;0.70;0.60;;;;;;;12.87;100.00;-21031.94;4975504;28;20444;-77
2021/10/07 07:38:04;;;;;;;0.70;0.70;;;;;;;12.95;100.00;-21034.13;4989759;28;20467;-77
2021/10/07 07:40:32;;;;;;;0.70;0.70;;;;;;;13.08;100.00;-21037.44;4975249;28;20510;-77
2021/10/07 07:42:59;;;;;;;0.70;0.60;;;;;;;13.11;100.00;-21038.28;4975639;28;20518;-77
2021/10/07 07:45:26;;;;;;;0.70;0.70;;;;;;;13.15;100.00;-21039.50;4976093;28;20431;-76
2021/10/07 07:47:56;;;;;;;0.70;0.60;;;;;;;13.27;100.00;-21042.69;4960493;28;20948;-75
2021/10/07 07:50:26;;;;;;;0.70;0.70;;;;;;;13.67;100.00;-21053.44;4964927;28;20534;-75
2021/10/07 07:52:53;;;;;;;0.70;0.60;;;;;;;13.76;100.00;-21055.91;4975893;28;20996;-78
2021/10/07 07:55:21;;;;;;;0.70;0.63;;;;;;;13.98;100.00;-21061.84;4974893;28;20788;-75
2021/10/07 07:57:48;;;;;;;0.70;0.60;;;;;;;14.14;100.00;-21066.09;4975249;28;20463;-76
2021/10/07 08:00:15;;;;;;;0.70;0.70;;;;;;;14.34;100.00;-21071.63;4974618;28;20546;-77
2021/10/07 08:02:42;;;;;;;0.70;0.70;;;;;;;14.31;100.00;-21070.78;4976354;28;20523;-77
2021/10/07 08:05:10;;;;;;;0.80;0.80;;;;;;;14.28;100.00;-21069.97;4976932;28;20537;-77
2021/10/07 08:07:39;;;;;;;1.07;1.00;;;;;;;14.33;100.00;-21071.34;4976425;28;20455;-77
2021/10/07 08:10:07;;;;;;;0.70;0.70;;;;;;;14.37;100.00;-21072.44;4975649;28;20418;-77
2021/10/07 08:12:34;;;;;;;0.70;0.70;;;;;;;14.50;100.00;-21076.03;4991423;28;20514;-78
2021/10/07 08:15:03;;;;;;;0.70;0.60;;;;;;;14.74;100.00;-21082.34;4974847;28;20455;-78
2021/10/07 08:17:30;;;;;;;0.70;0.70;;;;;;;15.33;100.00;-21098.31;4962854;28;20452;-78
2021/10/07 08:19:58;;;;;;;0.80;0.80;;;;;;;15.41;100.00;-21100.50;4955664;28;20905;-77
2021/10/07 08:22:25;;;;;;;0.70;0.60;;;;;;;14.88;100.00;-21086.06;4956348;28;20448;-78
2021/10/07 08:24:53;;;;;;;0.70;0.60;;;;;;;14.93;100.00;-21087.59;4955719;28;20452;-78
2021/10/07 08:27:20;;;;;;;2.30;1.40;;;;;;;14.74;100.00;-21082.34;4954277;29;20435;-76
2021/10/07 08:29:50;;;;;;;0.90;0.90;;;;;;;14.44;100.00;-21074.38;4964621;28;20451;-79
2021/10/07 08:32:17;;;;;;;0.70;0.70;;;;;;;14.52;100.00;-21076.44;4973011;28;20478;-79
2021/10/07 08:34:44;;;;;;;0.70;0.60;;;;;;;14.30;100.00;-21070.53;4973204;28;20449;-79
2021/10/07 08:37:11;;;;;;;0.70;0.60;;;;;;;14.07;100.00;-21064.19;4973212;28;20873;-78
2021/10/07 08:39:38;;;;;;;0.70;0.70;;;;;;;13.84;100.00;-21058.13;4974327;28;20525;-79
2021/10/07 08:42:06;;;;;;;0.70;0.70;;;;;;;13.72;100.00;-21054.94;4974848;28;20510;-79
2021/10/07 08:44:33;;;;;;;0.70;0.70;;;;;;;13.61;100.00;-21051.78;4971931;28;20441;-79
2021/10/07 08:47:01;;;;;;;0.70;0.63;;;;;;;13.46;100.00;-21047.94;4973105;28;20461;-79
2021/10/07 08:49:35;;;;;;;0.70;0.60;;;;;;;13.44;100.00;-21047.22;4972767;28;20440;-79
2021/10/07 08:52:03;;;;;;;0.70;0.70;;;;;;;13.37;100.00;-21045.44;4972950;28;20459;-79
2021/10/07 08:54:33;;;;;;;0.70;0.60;;;;;;;13.36;100.00;-21045.16;4974464;28;20423;-79
2021/10/07 08:57:01;;;;;;;0.70;0.70;;;;;;;13.27;100.00;-21042.69;4974175;28;20413;-77
2021/10/07 08:59:29;;;;;;;0.70;0.60;;;;;;;13.26;100.00;-21042.56;4967979;28;20461;-79
2021/10/07 09:01:58;;;;;;;0.70;0.67;;;;;;;13.24;100.00;-21042.00;4973317;28;20503;-79
2021/10/07 09:04:27;;;;;;;0.70;0.70;;;;;;;13.20;100.00;-21040.88;4974517;28;20444;-78
2021/10/07 09:06:58;;;;;;;0.70;0.70;;;;;;;13.27;100.00;-21042.69;4957129;28;20485;-77
2021/10/07 09:09:27;;;;;;;0.70;0.70;;;;;;;13.31;100.00;-21043.78;4972604;28;20492;-78
2021/10/07 09:11:57;;;;;;;0.70;0.60;;;;;;;13.37;100.00;-21045.44;4974142;28;21002;-77
2021/10/07 09:14:26;;;;;;;0.70;0.70;;;;;;;13.46;100.00;-21047.94;4973230;28;20958;-77
2021/10/07 09:16:55;;;;;;;0.70;0.60;;;;;;;13.65;100.00;-21053.03;4972223;28;20477;-77
2021/10/07 09:19:24;;;;;;;0.70;0.60;;;;;;;14.27;100.00;-21069.69;4972899;28;20488;-77
2021/10/07 09:21:54;;;;;;;0.80;0.80;;;;;;;15.16;100.00;-21093.78;4973852;28;20434;-77
2021/10/07 09:24:37;;;;;;;0.70;0.60;;;;;;;15.81;100.00;-21111.09;4973114;28;20466;-78
2021/10/07 09:27:07;;;;;;;0.70;0.60;;;;;;;15.76;100.00;-21109.88;4972943;28;20415;-79
2021/10/07 09:29:38;;;;;;;0.70;0.60;;;;;;;15.63;100.00;-21106.28;4974000;28;20514;-78
2021/10/07 09:32:08;;;;;;;0.70;0.60;;;;;;;15.70;100.00;-21108.22;4971741;28;20508;-79
2021/10/07 09:34:49;;;;;;;1.23;1.13;;;;;;;16.68;100.00;-21134.59;4973408;28;20416;-79
2021/10/07 09:37:19;;;;;;;0.70;0.60;;;;;;;17.08;100.00;-21145.28;4972830;28;20932;-78
2021/10/07 09:39:48;;;;;;;0.70;0.60;;;;;;;16.68;100.00;-21134.59;4973855;28;20443;-77
2021/10/07 09:42:25;;;;;;;0.70;0.70;;;;;;;16.37;100.00;-21126.34;4974724;28;20920;-79
2021/10/07 09:45:10;;;;;;;0.70;0.70;;;;;;;16.71;100.00;-21135.28;4988166;28;20451;-78
2021/10/07 09:47:45;;;;;;;0.80;0.70;;;;;;;17.63;100.00;-21160.09;4971278;28;20929;-79
2021/10/07 09:50:16;;;;;;;0.70;0.60;;;;;;;18.57;100.00;-21185.44;4984738;28;20406;-78
2021/10/07 09:52:46;;;;;;;0.70;0.60;;;;;;;19.38;100.00;-21206.94;4976484;28;21060;-77
2021/10/07 09:55:16;;;;;;;1.07;0.97;;;;;;;19.86;100.00;-21219.78;4977273;28;20455;-77
2021/10/07 09:57:51;;;;;;;0.70;0.60;;;;;;;19.76;100.00;-21217.31;4977296;28;20474;-76
2021/10/07 10:00:18;;;;;;;0.80;0.70;;;;;;;19.81;100.00;-21218.41;4975919;28;20510;-76
2021/10/07 10:02:48;;;;;;;0.70;0.60;;;;;;;20.41;100.00;-21234.53;4975447;28;20443;-77
2021/10/07 10:05:16;;;;;;;0.70;0.60;;;;;;;19.68;100.00;-21215.16;4975398;28;20479;-77
2021/10/07 10:07:44;;;;;;;0.73;0.63;;;;;;;19.77;100.00;-21217.59;4976936;28;20503;-77
2021/10/07 10:10:13;;;;;;;0.70;0.57;;;;;;;19.92;100.00;-21221.44;4966028;28;20452;-76
2021/10/07 10:12:40;;;;;;;0.70;0.60;;;;;;;20.23;100.00;-21229.75;4975537;28;20542;-76
2021/10/07 10:15:10;;;;;;;3.57;0.80;;;;;;;20.31;100.00;-21231.81;4976893;28;20808;-77
2021/10/07 10:17:37;;;;;;;0.70;0.60;;;;;;;19.29;100.00;-21204.75;4976470;28;20412;-77
2021/10/07 10:20:15;;;;;;;1.37;0.90;;;;;;;18.22;100.00;-21176.00;4977142;28;20451;-77
2021/10/07 10:22:47;;;;;;;0.80;0.80;;;;;;;16.89;100.00;-21140.34;4975273;28;20550;-76
2021/10/07 10:25:14;;;;;;;0.70;0.60;;;;;;;16.14;100.00;-21120.03;4974869;28;20502;-77
2021/10/07 10:27:52;;;;;;;0.80;0.80;;;;;;;16.05;100.00;-21117.56;4991492;28;20762;-77
2021/10/07 10:30:26;;;;;;;0.70;0.60;;;;;;;16.83;100.00;-21138.72;4976518;28;20477;-77
2021/10/07 10:32:56;;;;;;;0.70;0.70;;;;;;;18.46;100.00;-21182.31;4957338;28;20526;-77
2021/10/07 10:35:37;;;;;;;0.70;0.60;;;;;;;19.23;100.00;-21203.09;4957372;28;20452;-77
2021/10/07 10:38:09;;;;;;;1.10;1.00;;;;;;;19.64;100.00;-21213.91;4955925;28;20875;-77
2021/10/07 10:40:37;;;;;;;0.70;0.60;;;;;;;20.23;100.00;-21229.75;4997387;28;20479;-77
2021/10/07 10:43:32;;;;;;;0.80;0.80;;;;;;;19.81;100.00;-21218.41;4971805;28;20797;-78
2021/10/07 10:46:13;;;;;;;2.50;2.30;;;;;;;19.59;100.00;-21212.69;4944320;28;20452;-77
2021/10/07 10:48:53;;;;;;;1.40;0.90;;;;;;;19.87;100.00;-21220.06;4956769;28;20436;-76
2021/10/07 10:51:30;;;;;;;1.33;0.90;;;;;;;20.74;100.00;-21243.41;4974084;28;20424;-77
2021/10/07 10:53:59;;;;;;;0.90;0.70;;;;;;;20.67;100.00;-21241.66;4990773;28;20538;-77
2021/10/07 10:56:30;;;;;;;0.73;0.60;;;;;;;21.07;100.00;-21252.16;4974606;28;20444;-77
2021/10/07 10:59:17;;;;;;;1.17;1.00;;;;;;;22.49;100.00;-21290.03;4975951;28;20416;-76
2021/10/07 11:01:44;;;;;;;0.90;0.70;;;;;;;21.88;100.00;-21273.97;4973992;28;20995;-77
2021/10/07 11:04:31;;;;;;;1.73;1.07;;;;;;;22.75;100.00;-21297.13;4975508;28;20428;-76
2021/10/07 11:07:21;;;;;;;0.73;0.60;;;;;;;22.34;100.00;-21286.09;4975410;28;20486;-76
2021/10/07 11:09:56;;;;;;;0.70;0.60;;;;;;;22.67;100.00;-21295.09;4974994;28;20873;-77
2021/10/07 11:12:24;;;;;;;0.70;0.60;;;;;;;22.47;100.00;-21289.50;4975261;28;20577;-76
2021/10/07 11:14:51;;;;;;;0.80;0.80;;;;;;;22.81;100.00;-21298.63;4975719;28;20778;-76
2021/10/07 11:17:22;;;;;;;1.13;0.83;;;;;;;21.32;100.00;-21258.84;4975611;28;20439;-75
2021/10/07 11:19:49;;;;;;;0.70;0.70;;;;;;;21.74;100.00;-21270.03;4974204;28;20446;-74
2021/10/07 11:22:16;;;;;;;1.10;0.90;;;;;;;21.95;100.00;-21275.88;4974319;28;20438;-75
2021/10/07 11:24:54;;;;;;;0.70;0.60;;;;;;;22.29;100.00;-21284.88;4958419;28;20444;-75
2021/10/07 11:27:37;;;;;;;0.70;0.60;;;;;;;22.56;100.00;-21291.94;4974484;28;20570;-76
2021/10/07 11:30:08;;;;;;;2.00;1.23;;;;;;;22.08;100.00;-21279.28;4975649;28;20470;-76
2021/10/07 11:32:38;;;;;;;0.80;0.60;;;;;;;22.41;100.00;-21288.00;4975274;28;20490;-76
2021/10/07 11:35:09;;;;;;;1.50;1.40;;;;;;;22.22;100.00;-21282.84;4973828;28;20472;-75